• Join FlightAware (Why Join?)
  • Login
  • US Flag 
06:34AM EDT


 

Airport Tracker/Info


-or-


 

Live Flight TrackerFlight Track Log ✈ N6630A ✈ 25-Jan-2014 ✈ KXFL - KAPF

Flight Track Log - Related Links

Times and Time Zones

All times are in EST time to prevent confusion due to time zone crossing. See the N6630A flight status page for this flight to view local times or setup timezone preferences in your user account.

Time Position Orientation Groundspeed Altitude Reporting Facility
EST Latitude Longitude Course Direction KTS MPH feet Rate Location/Type
09:54AM 28.8833 -81.4000 270° West 133 153 3,600  Level Orlando TRACON
09:55AM 28.8833 -81.4500 270° West 146 168 3,400  Descending Orlando TRACON
09:56AM 28.8500 -81.4667 204° Southwest 132 152 3,600 120 Climbing Orlando TRACON
09:57AM 28.8167 -81.4667 180° South 133 153 3,700  Climbing Orlando TRACON
09:58AM 28.7833 -81.4833 204° Southwest 134 154 3,700  Level Orlando TRACON
09:59AM 28.7500 -81.5000 204° Southwest 135 155 3,700  Level Orlando TRACON
10:00AM 28.7000 -81.5000 180° South 141 162 3,700 -60 Level Orlando TRACON
10:01AM 28.6667 -81.5167 204° Southwest 141 162 3,600 -60 Descending Orlando TRACON
10:02AM 28.6333 -81.5167 180° South 144 166 3,600  Level Orlando TRACON
10:03AM 28.5833 -81.5333 196° South 140 161 3,600  Level Orlando TRACON
10:04AM 28.5500 -81.5500 204° Southwest 140 161 3,600  Level Orlando TRACON
10:05AM 28.5167 -81.5500 180° South 140 161 3,600  Level Orlando TRACON
10:06AM 28.4833 -81.5667 204° Southwest 142 163 3,600  Level Orlando TRACON
10:07AM 28.4333 -81.5667 180° South 142 163 3,600 240 Level Orlando TRACON
10:08AM 28.4000 -81.5833 204° Southwest 135 155 4,100 420 Climbing Orlando TRACON
10:09AM 28.3667 -81.5667 156° South 132 152 4,500 240 Climbing Orlando TRACON
10:10AM 28.3167 -81.5667 180° South 133 153 4,600  Climbing Orlando TRACON
10:11AM 28.2833 -81.5667 180° South 151 174 4,600  Level Orlando TRACON
10:12AM 28.2333 -81.5667 180° South 148 170 4,600  Level Orlando TRACON
10:13AM 28.2000 -81.5667 180° South 148 170 4,600  Level Orlando TRACON
10:14AM 28.1500 -81.5667 180° South 148 170 4,600  Level Orlando TRACON
10:15AM 28.1167 -81.5667 180° South 148 170 4,600  Level Orlando TRACON
10:16AM 28.0833 -81.5667 180° South 150 173 4,600  Level Orlando TRACON
10:17AM 28.0333 -81.5833 196° South 151 174 4,600  Level Orlando TRACON
10:18AM 28.0000 -81.5833 180° South 161 185 4,600 -120 Level Orlando TRACON
10:19AM 27.9744 -81.5869 187° South 147 169 4,500  Descending Miami Center
10:20AM 27.9325 -81.5922 186° South 147 169 4,600  Climbing Miami Center
10:21AM 27.8908 -81.5950 183° South 152 175 4,600 -60 Level Miami Center
10:22AM 27.8492 -81.5933 178° South 152 175 4,500  Descending Miami Center
10:23AM 27.8053 -81.5939 181° South 158 182 4,600  Climbing Miami Center
10:24AM 27.7636 -81.5922 178° South 158 182 4,500 60 Descending Miami Center
10:25AM 27.7219 -81.5928 181° South 158 182 4,800 420 Climbing Miami Center
10:26AM 27.6822 -81.5889 175° South 158 182 5,400 300 Climbing Miami Center
10:27AM 27.6467 -81.5919 184° South 147 169 5,500  Climbing Miami Center
10:28AM 27.6028 -81.5972 186° South 147 169 5,500  Level Miami Center
10:29AM 27.5606 -81.6072 192° South 152 175 5,500  Level Miami Center
10:30AM 27.5167 -81.6122 186° South 158 182 5,500  Level Miami Center
10:31AM 27.4725 -81.6247 194° South 158 182 5,600  Climbing Miami Center
10:32AM 27.4264 -81.6250 180° South 158 182 5,500 -60 Descending Miami Center
10:33AM 27.3806 -81.6278 183° South 158 182 5,500  Level Miami Center
10:34AM 27.3367 -81.6258 178° South 163 188 5,500  Level Miami Center
10:35AM 27.2908 -81.6217 175° South 163 188 5,500  Level Miami Center
10:36AM 27.2450 -81.6197 178° South 158 182 5,500  Level Miami Center
10:37AM 27.1969 -81.6225 183° South 158 182 5,500  Level Miami Center
10:38AM 27.1511 -81.6231 181° South 158 182 5,500  Level Miami Center
10:39AM 27.1072 -81.6236 181° South 158 182 5,500  Level Miami Center
10:40AM 27.0611 -81.6239 180° South 158 182 5,500  Level Miami Center
10:41AM 27.0131 -81.6267 183° South 158 182 5,600  Climbing Miami Center
10:42AM 26.9669 -81.6317 186° South 158 182 5,600  Level Miami Center
10:43AM 26.9250 -81.6394 189° South 163 188 5,600  Level Miami Center
10:44AM 26.8831 -81.6469 189° South 157 181 5,600 -240 Level Miami Center
10:45AM 26.8378 -81.6242 156° South 163 188 5,200 -360 Descending Miami Center
10:46AM 26.7947 -81.6014 155° Southeast 174 200 4,900 -300 Descending Miami Center
10:48AM 26.6978 -81.6278 185° South  Level Estimated
10:55AM 26.3157 -81.7336 190° South  Level FlightAware Approximate
10:56AM 26.2611 -81.7445 190° South  Level FlightAware Approximate
10:57AM 26.2066 -81.7553 190° South  Level FlightAware Approximate
10:58AM 26.1521 -81.7663 190° South  Level FlightAware Approximate
10:59AM 26.1500 -81.7667 190° South  Level FlightAware Approximate
11:00AM 26.1524 -81.7756 190° South  Level Estimated
11:01AM 26.1524 -81.7756 190° South  Level Estimated
11:02AM 26.1524 -81.7756 190° South  Level Estimated
11:03AM 26.1524 -81.7756 190° South  Level Estimated
11:04AM 26.1524 -81.7756 190° South  Level Estimated
11:05AM 26.1524 -81.7756 190° South  Level Estimated
11:06AM 26.1524 -81.7756 190° South  Level Estimated
11:07AM 26.1524 -81.7756 190° South  Level Estimated
11:08AM 26.1524 -81.7756 190° South  Level Estimated
11:09AM 26.1524 -81.7756 190° South  Level Estimated
11:10AM 26.1524 -81.7756 190° South  Level Estimated
11:11AM 26.1524 -81.7756 190° South  Level Estimated
11:12AM 26.1524 -81.7756 190° South  Level Estimated
11:13AM 26.1524 -81.7756 190° South  Level Estimated
11:14AM 26.1524 -81.7756 190° South  Level Estimated
11:15AM 26.1524 -81.7756 190° South  Level Estimated